KAUM/AUM METAR and TAF weather

Enter ICAO airport designator
Station Type Date Time Source
KAUM METAR 2018/07/20 14:35 UTC NOAA

KAUM 201435Z AUTO 32013G18KT 4SM -DZ OVC006 18/17 A2980 RMK AO2


Station Type Date Time Source
KAUM Decoded METAR 2018/07/20 14:35 UTC NOAA

Austin Municipal, MN, United States (KAUM) 43-40N 092-56W
Jul 20, 2018 - 10:35 AM EDT / 2018.07.20 1435 UTC
Wind: from the NW (320 degrees) at 15 MPH (13 KT) gusting to 21 MPH (18 KT):0
Visibility: 4 mile(s):0
Sky conditions: overcast
Weather: light drizzle
Temperature: 64 F (18 C)
Dew Point: 62 F (17 C)
Relative Humidity: 93%
Pressure (altimeter): 29.8 in. Hg (1009 hPa)
ob: KAUM 201435Z AUTO 32013G18KT 4SM -DZ OVC006 18/17 A2980 RMK AO2
cycle: 14

Station Type Date Time Source
KAUM TAF UTC NOAA

Error!


Example: see airport list